sensor_id;sensor_type;location;lat;lon;timestamp;P1;durP1;ratioP1;P2;durP2;ratioP2
39698;SDS011;25372;50.582;12.250;2022-08-19T00:07:39;7.78;;;4.10;;
39698;SDS011;25372;50.582;12.250;2022-08-19T00:18:00;7.03;;;4.22;;
39698;SDS011;25372;50.582;12.250;2022-08-19T00:28:22;7.32;;;4.05;;
39698;SDS011;25372;50.582;12.250;2022-08-19T00:38:43;8.57;;;4.45;;
39698;SDS011;25372;50.582;12.250;2022-08-19T00:49:06;6.22;;;4.15;;
39698;SDS011;25372;50.582;12.250;2022-08-19T00:59:33;8.77;;;4.50;;
39698;SDS011;25372;50.582;12.250;2022-08-19T01:09:58;8.70;;;5.40;;
39698;SDS011;25372;50.582;12.250;2022-08-19T01:20:21;8.02;;;4.85;;
39698;SDS011;25372;50.582;12.250;2022-08-19T01:30:46;6.63;;;4.33;;
39698;SDS011;25372;50.582;12.250;2022-08-19T01:41:07;6.65;;;4.32;;
39698;SDS011;25372;50.582;12.250;2022-08-19T01:51:29;7.13;;;3.88;;
39698;SDS011;25372;50.582;12.250;2022-08-19T02:01:51;6.53;;;5.03;;
39698;SDS011;25372;50.582;12.250;2022-08-19T02:12:13;8.70;;;4.38;;
39698;SDS011;25372;50.582;12.250;2022-08-19T02:22:35;7.53;;;4.78;;
39698;SDS011;25372;50.582;12.250;2022-08-19T02:32:57;11.68;;;4.55;;
39698;SDS011;25372;50.582;12.250;2022-08-19T02:43:18;6.38;;;5.00;;
39698;SDS011;25372;50.582;12.250;2022-08-19T02:53:41;8.35;;;4.50;;
39698;SDS011;25372;50.582;12.250;2022-08-19T03:04:03;7.22;;;4.65;;
39698;SDS011;25372;50.582;12.250;2022-08-19T03:14:29;7.13;;;4.85;;
39698;SDS011;25372;50.582;12.250;2022-08-19T03:24:50;7.33;;;5.23;;
39698;SDS011;25372;50.582;12.250;2022-08-19T03:35:12;10.75;;;5.20;;
39698;SDS011;25372;50.582;12.250;2022-08-19T03:45:33;8.20;;;5.28;;
39698;SDS011;25372;50.582;12.250;2022-08-19T03:55:56;10.00;;;4.40;;
39698;SDS011;25372;50.582;12.250;2022-08-19T04:06:18;7.53;;;4.72;;
39698;SDS011;25372;50.582;12.250;2022-08-19T04:16:42;5.75;;;4.15;;
39698;SDS011;25372;50.582;12.250;2022-08-19T04:27:05;7.15;;;4.95;;
39698;SDS011;25372;50.582;12.250;2022-08-19T04:37:27;5.97;;;4.30;;
39698;SDS011;25372;50.582;12.250;2022-08-19T04:47:54;6.25;;;4.25;;
39698;SDS011;25372;50.582;12.250;2022-08-19T04:58:18;6.03;;;4.90;;
39698;SDS011;25372;50.582;12.250;2022-08-19T05:08:39;7.72;;;5.07;;
39698;SDS011;25372;50.582;12.250;2022-08-19T05:19:03;6.95;;;4.75;;
39698;SDS011;25372;50.582;12.250;2022-08-19T05:29:42;7.75;;;5.05;;
39698;SDS011;25372;50.582;12.250;2022-08-19T05:40:04;8.23;;;4.80;;
39698;SDS011;25372;50.582;12.250;2022-08-19T05:50:26;6.40;;;3.92;;
39698;SDS011;25372;50.582;12.250;2022-08-19T06:00:48;4.90;;;3.95;;
39698;SDS011;25372;50.582;12.250;2022-08-19T06:11:13;6.70;;;4.22;;
39698;SDS011;25372;50.582;12.250;2022-08-19T06:21:38;4.68;;;3.03;;
39698;SDS011;25372;50.582;12.250;2022-08-19T06:32:01;4.47;;;2.13;;
39698;SDS011;25372;50.582;12.250;2022-08-19T06:42:25;4.60;;;3.05;;
39698;SDS011;25372;50.582;12.250;2022-08-19T06:52:46;5.57;;;3.67;;
39698;SDS011;25372;50.582;12.250;2022-08-19T07:03:08;5.07;;;3.03;;
39698;SDS011;25372;50.582;12.250;2022-08-19T07:13:29;5.30;;;3.72;;
39698;SDS011;25372;50.582;12.250;2022-08-19T07:23:58;6.32;;;3.90;;
39698;SDS011;25372;50.582;12.250;2022-08-19T07:34:19;6.20;;;3.83;;
39698;SDS011;25372;50.582;12.250;2022-08-19T07:44:41;5.72;;;3.22;;
39698;SDS011;25372;50.582;12.250;2022-08-19T07:55:03;6.55;;;3.83;;
39698;SDS011;25372;50.582;12.250;2022-08-19T08:05:25;6.30;;;4.18;;
39698;SDS011;25372;50.582;12.250;2022-08-19T08:16:04;6.47;;;4.40;;
39698;SDS011;25372;50.582;12.250;2022-08-19T08:26:27;6.45;;;3.88;;
39698;SDS011;25372;50.582;12.250;2022-08-19T08:36:48;3.92;;;3.33;;
39698;SDS011;25372;50.582;12.250;2022-08-19T08:47:12;4.72;;;2.88;;
39698;SDS011;25372;50.582;12.250;2022-08-19T08:57:38;3.33;;;2.55;;
39698;SDS011;25372;50.582;12.250;2022-08-19T09:08:07;7.28;;;3.30;;
39698;SDS011;25372;50.582;12.250;2022-08-19T09:18:38;4.22;;;2.97;;
39698;SDS011;25372;50.582;12.250;2022-08-19T09:29:02;5.57;;;3.67;;
39698;SDS011;25372;50.582;12.250;2022-08-19T09:39:25;5.65;;;4.03;;
39698;SDS011;25372;50.582;12.250;2022-08-19T09:49:47;6.05;;;4.07;;
39698;SDS011;25372;50.582;12.250;2022-08-19T10:00:10;5.50;;;2.78;;
39698;SDS011;25372;50.582;12.250;2022-08-19T10:10:35;3.67;;;2.63;;
39698;SDS011;25372;50.582;12.250;2022-08-19T10:21:02;3.28;;;2.40;;
39698;SDS011;25372;50.582;12.250;2022-08-19T10:31:30;3.03;;;2.40;;
39698;SDS011;25372;50.582;12.250;2022-08-19T10:41:52;2.20;;;2.00;;
39698;SDS011;25372;50.582;12.250;2022-08-19T10:52:14;2.38;;;1.88;;
39698;SDS011;25372;50.582;12.250;2022-08-19T11:02:53;2.42;;;1.75;;
39698;SDS011;25372;50.582;12.250;2022-08-19T11:13:16;4.05;;;2.25;;
39698;SDS011;25372;50.582;12.250;2022-08-19T11:23:37;5.32;;;2.95;;
39698;SDS011;25372;50.582;12.250;2022-08-19T11:33:59;3.38;;;2.42;;
39698;SDS011;25372;50.582;12.250;2022-08-19T11:44:23;4.32;;;2.90;;
39698;SDS011;25372;50.582;12.250;2022-08-19T11:54:46;5.60;;;3.33;;
39698;SDS011;25372;50.582;12.250;2022-08-19T12:05:07;5.10;;;3.53;;
39698;SDS011;25372;50.582;12.250;2022-08-19T12:15:29;5.65;;;3.28;;
39698;SDS011;25372;50.582;12.250;2022-08-19T12:25:50;7.15;;;4.22;;
39698;SDS011;25372;50.582;12.250;2022-08-19T12:36:13;7.88;;;4.60;;
39698;SDS011;25372;50.582;12.250;2022-08-19T12:46:36;8.77;;;5.35;;
39698;SDS011;25372;50.582;12.250;2022-08-19T12:56:58;10.70;;;5.22;;
39698;SDS011;25372;50.582;12.250;2022-08-19T13:07:19;9.50;;;5.13;;
39698;SDS011;25372;50.582;12.250;2022-08-19T13:17:42;8.57;;;4.63;;
39698;SDS011;25372;50.582;12.250;2022-08-19T13:28:03;9.73;;;4.25;;
39698;SDS011;25372;50.582;12.250;2022-08-19T13:38:27;8.73;;;6.20;;
39698;SDS011;25372;50.582;12.250;2022-08-19T13:48:49;11.23;;;6.15;;
39698;SDS011;25372;50.582;12.250;2022-08-19T13:59:12;14.98;;;8.13;;
39698;SDS011;25372;50.582;12.250;2022-08-19T14:09:33;9.77;;;5.28;;
39698;SDS011;25372;50.582;12.250;2022-08-19T14:19:57;12.32;;;6.53;;
39698;SDS011;25372;50.582;12.250;2022-08-19T14:30:19;12.82;;;7.35;;
39698;SDS011;25372;50.582;12.250;2022-08-19T14:40:44;11.07;;;6.82;;
39698;SDS011;25372;50.582;12.250;2022-08-19T14:51:05;14.55;;;7.65;;
39698;SDS011;25372;50.582;12.250;2022-08-19T15:01:27;11.13;;;6.57;;
39698;SDS011;25372;50.582;12.250;2022-08-19T15:11:48;7.90;;;6.07;;
39698;SDS011;25372;50.582;12.250;2022-08-19T15:22:11;8.40;;;6.18;;
39698;SDS011;25372;50.582;12.250;2022-08-19T15:32:33;11.30;;;6.07;;
39698;SDS011;25372;50.582;12.250;2022-08-19T15:42:55;8.00;;;5.93;;
39698;SDS011;25372;50.582;12.250;2022-08-19T15:53:17;12.10;;;6.32;;
39698;SDS011;25372;50.582;12.250;2022-08-19T16:03:39;13.27;;;5.88;;
39698;SDS011;25372;50.582;12.250;2022-08-19T16:14:18;11.27;;;4.78;;
39698;SDS011;25372;50.582;12.250;2022-08-19T16:24:41;10.68;;;5.65;;
39698;SDS011;25372;50.582;12.250;2022-08-19T16:35:03;10.00;;;5.25;;
39698;SDS011;25372;50.582;12.250;2022-08-19T16:45:26;7.47;;;4.40;;
39698;SDS011;25372;50.582;12.250;2022-08-19T16:55:47;7.78;;;4.90;;
39698;SDS011;25372;50.582;12.250;2022-08-19T17:06:13;9.53;;;4.90;;
39698;SDS011;25372;50.582;12.250;2022-08-19T17:16:36;10.15;;;5.05;;
39698;SDS011;25372;50.582;12.250;2022-08-19T17:26:59;12.98;;;5.78;;
39698;SDS011;25372;50.582;12.250;2022-08-19T17:37:20;9.52;;;5.53;;
39698;SDS011;25372;50.582;12.250;2022-08-19T17:47:42;7.85;;;4.10;;
39698;SDS011;25372;50.582;12.250;2022-08-19T17:58:03;7.78;;;4.68;;
39698;SDS011;25372;50.582;12.250;2022-08-19T18:08:25;9.85;;;5.05;;
39698;SDS011;25372;50.582;12.250;2022-08-19T18:18:47;11.68;;;5.22;;
39698;SDS011;25372;50.582;12.250;2022-08-19T18:29:09;7.33;;;4.53;;
39698;SDS011;25372;50.582;12.250;2022-08-19T18:39:31;8.20;;;4.68;;
39698;SDS011;25372;50.582;12.250;2022-08-19T18:50:11;8.45;;;5.60;;
39698;SDS011;25372;50.582;12.250;2022-08-19T19:00:36;12.30;;;6.03;;
39698;SDS011;25372;50.582;12.250;2022-08-19T19:11:00;13.98;;;7.30;;
39698;SDS011;25372;50.582;12.250;2022-08-19T19:21:24;16.77;;;7.87;;
39698;SDS011;25372;50.582;12.250;2022-08-19T19:31:46;14.10;;;7.00;;
39698;SDS011;25372;50.582;12.250;2022-08-19T19:42:10;12.10;;;6.80;;
39698;SDS011;25372;50.582;12.250;2022-08-19T19:52:33;8.52;;;5.03;;
39698;SDS011;25372;50.582;12.250;2022-08-19T20:02:53;8.10;;;5.00;;
39698;SDS011;25372;50.582;12.250;2022-08-19T20:13:15;15.23;;;6.32;;
39698;SDS011;25372;50.582;12.250;2022-08-19T20:23:36;10.57;;;5.95;;
39698;SDS011;25372;50.582;12.250;2022-08-19T20:33:59;12.23;;;5.25;;
39698;SDS011;25372;50.582;12.250;2022-08-19T20:44:19;10.00;;;5.88;;
39698;SDS011;25372;50.582;12.250;2022-08-19T20:54:43;11.63;;;5.28;;
39698;SDS011;25372;50.582;12.250;2022-08-19T21:05:04;11.30;;;5.35;;
39698;SDS011;25372;50.582;12.250;2022-08-19T21:15:27;8.05;;;5.53;;
39698;SDS011;25372;50.582;12.250;2022-08-19T21:25:49;7.43;;;4.05;;
39698;SDS011;25372;50.582;12.250;2022-08-19T21:36:12;11.70;;;4.65;;
39698;SDS011;25372;50.582;12.250;2022-08-19T21:46:33;7.20;;;4.32;;
39698;SDS011;25372;50.582;12.250;2022-08-19T21:56:56;5.80;;;3.67;;
39698;SDS011;25372;50.582;12.250;2022-08-19T22:07:20;17.90;;;4.68;;
39698;SDS011;25372;50.582;12.250;2022-08-19T22:17:42;9.50;;;5.97;;
39698;SDS011;25372;50.582;12.250;2022-08-19T22:28:04;7.80;;;4.80;;
39698;SDS011;25372;50.582;12.250;2022-08-19T22:38:28;9.45;;;4.80;;
39698;SDS011;25372;50.582;12.250;2022-08-19T22:48:49;12.27;;;5.10;;
39698;SDS011;25372;50.582;12.250;2022-08-19T22:59:11;9.32;;;4.82;;
39698;SDS011;25372;50.582;12.250;2022-08-19T23:09:32;8.07;;;4.70;;
39698;SDS011;25372;50.582;12.250;2022-08-19T23:19:59;6.70;;;3.90;;
39698;SDS011;25372;50.582;12.250;2022-08-19T23:30:20;7.50;;;3.92;;
39698;SDS011;25372;50.582;12.250;2022-08-19T23:40:48;7.63;;;4.10;;
39698;SDS011;25372;50.582;12.250;2022-08-19T23:51:10;10.48;;;5.57;;
